createdAt,value
2022-10-26T00:01:05.506Z,96656.84
2022-10-26T00:03:34.847Z,96653.25
2022-10-26T00:06:08.534Z,96654.56
2022-10-26T00:08:37.062Z,96663.22
2022-10-26T00:11:07.680Z,96657.09
2022-10-26T00:13:37.054Z,96655.41
2022-10-26T00:16:10.177Z,96658.75
2022-10-26T00:18:38.744Z,96651.53
2022-10-26T00:21:07.926Z,96656.84
2022-10-26T00:23:36.186Z,96653.09
2022-10-26T00:26:06.735Z,96644.31
2022-10-26T00:28:34.927Z,96645.16
2022-10-26T00:31:03.745Z,96652.72
2022-10-26T00:33:32.427Z,96652.84
2022-10-26T00:36:00.709Z,96652.97
2022-10-26T00:38:28.888Z,96659.94
2022-10-26T00:43:38.934Z,96662.72
2022-10-26T00:46:11.792Z,96659.00
2022-10-26T00:48:44.195Z,96657.28
2022-10-26T00:51:16.707Z,96662.47
2022-10-26T00:53:45.660Z,96665.00
2022-10-26T00:56:13.927Z,96667.66
2022-10-26T00:58:44.118Z,96654.25
2022-10-26T01:01:12.547Z,96656.06
2022-10-26T01:03:40.572Z,96650.50
2022-10-26T01:06:10.166Z,96647.19
2022-10-26T01:08:38.509Z,96633.78
2022-10-26T01:11:07.175Z,96640.06
2022-10-26T01:13:36.902Z,96635.50
2022-10-26T01:16:23.694Z,96633.69
2022-10-26T01:19:00.565Z,96629.22
2022-10-26T01:21:52.851Z,96623.81
2022-10-26T01:24:34.536Z,96621.88
2022-10-26T01:27:21.527Z,96611.28
2022-10-26T01:32:56.699Z,96611.84
2022-10-26T01:35:32.328Z,96611.03
2022-10-26T01:38:07.989Z,96604.03
2022-10-26T01:40:39.176Z,96604.03
2022-10-26T01:43:11.171Z,96607.38
2022-10-26T01:45:43.349Z,96613.53
2022-10-26T01:48:15.123Z,96612.44
2022-10-26T01:50:47.665Z,96608.25
2022-10-26T01:53:17.108Z,96611.59
2022-10-26T01:55:49.282Z,96604.50
2022-10-26T01:58:51.157Z,96588.84
2022-10-26T02:01:37.525Z,96591.00
2022-10-26T02:04:17.407Z,96578.59
2022-10-26T02:06:54.175Z,96584.88
2022-10-26T02:09:30.487Z,96596.03
2022-10-26T02:11:59.761Z,96598.81
2022-10-26T02:14:36.282Z,96610.50
2022-10-26T02:17:09.191Z,96614.94
2022-10-26T02:19:43.842Z,96609.66
2022-10-26T02:22:17.956Z,96606.44
2022-10-26T02:24:48.294Z,96619.69
2022-10-26T02:27:21.610Z,96624.00
2022-10-26T02:29:53.951Z,96621.22
2022-10-26T02:32:25.721Z,96628.34
2022-10-26T02:34:58.498Z,96628.56
2022-10-26T02:37:29.938Z,96623.28
2022-10-26T02:39:59.250Z,96620.50
2022-10-26T02:42:28.972Z,96620.38
2022-10-26T02:45:01.242Z,96620.25
2022-10-26T02:47:29.517Z,96620.94
2022-10-26T02:49:59.415Z,96621.78
2022-10-26T02:52:34.243Z,96621.66
2022-10-26T02:55:06.087Z,96629.22
2022-10-26T02:57:39.705Z,96637.63
2022-10-26T03:00:08.686Z,96637.63
2022-10-26T03:02:36.958Z,96638.31
2022-10-26T03:05:14.236Z,96644.34
2022-10-26T03:07:42.987Z,96646.00
2022-10-26T03:10:12.046Z,96665.25
2022-10-26T03:12:40.212Z,96660.56
2022-10-26T03:15:09.068Z,96660.56
2022-10-26T03:17:37.183Z,96660.28
2022-10-26T03:20:06.332Z,96666.41
2022-10-26T03:22:35.595Z,96684.72
2022-10-26T03:25:03.814Z,96671.47
2022-10-26T03:27:31.709Z,96666.31
2022-10-26T03:29:59.678Z,96672.31
2022-10-26T03:32:27.625Z,96667.72
2022-10-26T03:34:55.565Z,96673.75
2022-10-26T03:37:23.632Z,96678.88
2022-10-26T03:39:52.950Z,96679.59
2022-10-26T03:42:21.015Z,96676.03
2022-10-26T03:44:48.954Z,96666.97
2022-10-26T03:47:17.132Z,96677.44
2022-10-26T03:49:45.376Z,96660.41
2022-10-26T03:52:13.263Z,96656.00
2022-10-26T03:54:41.188Z,96654.00
2022-10-26T03:57:10.509Z,96643.28
2022-10-26T03:59:38.611Z,96641.22
2022-10-26T04:02:06.621Z,96640.69
2022-10-26T04:04:34.625Z,96636.22
2022-10-26T04:07:02.567Z,96635.38
2022-10-26T04:09:30.449Z,96624.94
2022-10-26T04:11:58.319Z,96636.22
2022-10-26T04:14:27.573Z,96623.94
2022-10-26T04:16:55.546Z,96623.84
2022-10-26T04:19:23.528Z,96652.00
2022-10-26T04:21:52.220Z,96653.09
2022-10-26T04:24:20.203Z,96646.13
2022-10-26T04:26:48.173Z,96660.94
2022-10-26T04:29:16.253Z,96674.03
2022-10-26T04:31:46.215Z,96660.78
2022-10-26T04:34:14.143Z,96659.25
2022-10-26T04:36:42.111Z,96653.25
2022-10-26T04:39:10.020Z,96645.06
2022-10-26T04:41:37.909Z,96654.69
2022-10-26T04:44:05.944Z,96647.56
2022-10-26T04:46:33.904Z,96643.38
2022-10-26T04:49:03.253Z,96640.72
2022-10-26T04:51:31.139Z,96639.88
2022-10-26T04:53:59.270Z,96648.84
2022-10-26T04:56:27.261Z,96655.25
2022-10-26T04:58:55.609Z,96644.47
2022-10-26T05:01:23.881Z,96652.72
2022-10-26T05:03:52.316Z,96653.69
2022-10-26T05:06:22.108Z,96649.34
2022-10-26T05:08:50.698Z,96644.03
2022-10-26T05:11:18.590Z,96648.41
2022-10-26T05:13:48.226Z,96653.69
2022-10-26T05:16:16.977Z,96658.28
2022-10-26T05:18:44.942Z,96660.06
2022-10-26T05:21:19.212Z,96671.66
2022-10-26T05:23:53.888Z,96670.56
2022-10-26T05:26:21.981Z,96674.47
2022-10-26T05:28:49.975Z,96678.09
2022-10-26T05:31:18.040Z,96682.69
2022-10-26T05:33:49.271Z,96682.59
2022-10-26T05:36:17.587Z,96683.41
2022-10-26T05:38:45.859Z,96686.50
2022-10-26T05:41:15.253Z,96683.72
2022-10-26T05:43:43.233Z,96681.19
2022-10-26T05:46:11.127Z,96685.53
2022-10-26T05:48:39.051Z,96685.16
2022-10-26T05:51:07.362Z,96691.41
2022-10-26T05:53:35.210Z,96690.44
2022-10-26T05:56:06.050Z,96697.41
2022-10-26T05:58:39.311Z,96698.41
2022-10-26T06:01:16.758Z,96709.00
2022-10-26T06:04:02.263Z,96705.25
2022-10-26T06:06:35.410Z,96709.84
2022-10-26T06:09:03.958Z,96715.28
2022-10-26T06:11:32.502Z,96722.00
2022-10-26T06:14:03.459Z,96734.97
2022-10-26T06:16:39.420Z,96744.34
2022-10-26T06:19:17.717Z,96747.72
2022-10-26T06:22:02.746Z,96754.69
2022-10-26T06:24:38.979Z,96751.09
2022-10-26T06:27:19.697Z,96756.38
2022-10-26T06:29:58.437Z,96764.59
2022-10-26T06:32:26.584Z,96759.16
2022-10-26T06:35:06.959Z,96769.50
2022-10-26T06:37:37.205Z,96760.44
2022-10-26T06:40:07.423Z,96763.94
2022-10-26T06:42:35.816Z,96773.69
2022-10-26T06:45:06.424Z,96779.72
2022-10-26T06:47:41.737Z,96771.75
2022-10-26T06:50:23.101Z,96779.47
2022-10-26T06:53:03.859Z,96782.84
2022-10-26T06:55:40.528Z,96783.50
2022-10-26T06:58:11.490Z,96778.91
2022-10-26T07:00:41.702Z,96784.09
2022-10-26T07:03:09.608Z,96784.94
2022-10-26T07:05:37.587Z,96793.59
2022-10-26T07:08:06.462Z,96789.97
2022-10-26T07:10:36.288Z,96787.19
2022-10-26T07:13:04.154Z,96787.78
2022-10-26T07:15:32.111Z,96801.72
2022-10-26T07:18:01.762Z,96804.84
2022-10-26T07:20:29.760Z,96802.91
2022-10-26T07:22:58.502Z,96805.41
2022-10-26T07:25:27.230Z,96808.78
2022-10-26T07:27:59.056Z,96814.66
2022-10-26T07:30:27.393Z,96818.00
2022-10-26T07:33:01.445Z,96819.59
2022-10-26T07:35:30.116Z,96826.44
2022-10-26T07:37:59.026Z,96824.34
2022-10-26T07:40:28.108Z,96830.22
2022-10-26T07:42:58.773Z,96827.31
2022-10-26T07:45:27.388Z,96827.91
2022-10-26T07:47:55.385Z,96832.94
2022-10-26T07:50:25.822Z,96832.78
2022-10-26T07:52:54.435Z,96836.84
2022-10-26T07:55:22.508Z,96832.13
2022-10-26T07:57:53.795Z,96829.06
2022-10-26T08:00:23.324Z,96830.59
2022-10-26T08:02:51.383Z,96835.50
2022-10-26T08:05:19.455Z,96841.41
2022-10-26T08:07:49.195Z,96842.00
2022-10-26T08:10:17.890Z,96829.41
2022-10-26T08:12:46.043Z,96836.13
2022-10-26T08:15:14.000Z,96836.56
2022-10-26T08:17:41.978Z,96837.97
2022-10-26T08:20:11.034Z,96845.81
2022-10-26T08:22:38.949Z,96843.72
2022-10-26T08:25:08.831Z,96847.06
2022-10-26T08:27:36.796Z,96853.78
2022-10-26T08:30:05.196Z,96853.50
2022-10-26T08:32:33.068Z,96846.00
2022-10-26T08:35:00.991Z,96840.50
2022-10-26T08:37:29.209Z,96841.94
2022-10-26T08:40:00.621Z,96841.50
2022-10-26T08:42:37.607Z,96849.19
2022-10-26T08:45:11.775Z,96851.59
2022-10-26T08:47:48.630Z,96857.47
2022-10-26T08:50:25.935Z,96858.88
2022-10-26T08:53:02.236Z,96863.91
2022-10-26T08:55:36.025Z,96861.81
2022-10-26T08:58:11.966Z,96858.88
2022-10-26T09:00:41.721Z,96870.91
2022-10-26T09:03:15.769Z,96864.91
2022-10-26T09:05:56.423Z,96871.22
2022-10-26T09:08:36.805Z,96876.09
2022-10-26T09:11:14.469Z,96884.63
2022-10-26T09:13:56.404Z,96886.31
2022-10-26T09:16:36.571Z,96886.03
2022-10-26T09:19:29.506Z,96894.00
2022-10-26T09:22:05.261Z,96895.84
2022-10-26T09:24:34.815Z,96902.00
2022-10-26T09:27:09.089Z,96901.69
2022-10-26T09:29:42.446Z,96901.69
2022-10-26T09:32:18.001Z,96906.06
2022-10-26T09:34:50.958Z,96903.94
2022-10-26T09:37:22.365Z,96902.69
2022-10-26T09:39:59.530Z,96910.00
2022-10-26T09:42:35.113Z,96908.72
2022-10-26T09:45:13.841Z,96909.00
2022-10-26T09:47:46.326Z,96913.75
2022-10-26T09:50:23.696Z,96913.31
2022-10-26T09:52:52.548Z,96912.75
2022-10-26T09:55:22.597Z,96905.31
2022-10-26T09:57:55.074Z,96915.97
2022-10-26T10:00:26.710Z,96918.50
2022-10-26T10:02:57.046Z,96924.66
2022-10-26T10:05:49.866Z,96929.72
2022-10-26T10:08:19.752Z,96926.63
2022-10-26T10:10:59.534Z,96924.19
2022-10-26T10:13:30.339Z,96925.47
2022-10-26T10:16:06.560Z,96930.19
2022-10-26T10:18:36.258Z,96922.75
2022-10-26T10:21:05.839Z,96935.88
2022-10-26T10:23:36.228Z,96926.00
2022-10-26T10:26:07.139Z,96936.91
2022-10-26T10:28:35.995Z,96935.19
2022-10-26T10:31:07.118Z,96944.00
2022-10-26T10:33:37.644Z,96941.16
2022-10-26T10:36:09.396Z,96942.94
2022-10-26T10:38:42.626Z,96937.53
2022-10-26T10:41:23.236Z,96948.06
2022-10-26T10:43:54.605Z,96938.75
2022-10-26T10:46:27.367Z,96938.16
2022-10-26T10:49:03.709Z,96943.19
2022-10-26T10:51:37.317Z,96952.13
2022-10-26T10:54:07.051Z,96957.69
2022-10-26T10:56:39.425Z,96959.72
2022-10-26T10:59:27.253Z,96966.16
2022-10-26T11:02:13.559Z,96961.50
2022-10-26T11:05:00.151Z,96966.53
2022-10-26T11:07:31.341Z,96963.69
2022-10-26T11:10:03.808Z,96969.59
2022-10-26T11:15:14.369Z,96963.94
2022-10-26T11:17:54.194Z,96967.97
2022-10-26T11:20:25.189Z,96954.50
2022-10-26T11:25:45.442Z,96964.72
2022-10-26T11:28:18.766Z,96968.47
2022-10-26T11:30:52.111Z,96969.13
2022-10-26T11:33:28.063Z,96975.72
2022-10-26T11:36:01.883Z,96976.06
2022-10-26T11:38:45.983Z,96976.31
2022-10-26T11:41:26.463Z,96982.69
2022-10-26T11:44:02.694Z,96984.91
2022-10-26T11:46:37.165Z,96981.09
2022-10-26T11:49:14.375Z,96982.75
2022-10-26T11:51:47.858Z,96978.41
2022-10-26T11:56:56.999Z,96981.78
2022-10-26T11:59:32.242Z,96987.94
2022-10-26T12:02:05.746Z,96987.63
2022-10-26T12:04:39.100Z,96985.97
2022-10-26T12:07:14.690Z,96981.59
2022-10-26T12:09:45.105Z,96985.81
2022-10-26T12:12:24.051Z,96995.81
2022-10-26T12:15:00.800Z,96999.84
2022-10-26T12:17:36.284Z,96996.69
2022-10-26T12:20:24.566Z,96995.38
2022-10-26T12:22:52.808Z,97000.59
2022-10-26T12:25:23.132Z,96995.59
2022-10-26T12:27:56.146Z,96998.13
2022-10-26T12:30:28.019Z,96994.31
2022-10-26T12:32:57.853Z,96994.31
2022-10-26T12:35:48.132Z,97007.50
2022-10-26T12:38:57.779Z,97004.00
2022-10-26T12:41:27.374Z,97003.16
2022-10-26T12:44:00.161Z,96999.66
2022-10-26T12:46:45.420Z,97005.69
2022-10-26T12:49:43.178Z,97010.38
2022-10-26T12:52:32.893Z,97013.88
2022-10-26T12:55:30.388Z,97019.09
2022-10-26T12:58:11.258Z,97020.25
2022-10-26T13:00:48.467Z,97024.44
2022-10-26T13:03:30.662Z,97018.09
2022-10-26T13:06:12.536Z,97019.78
2022-10-26T13:08:43.604Z,97020.66
2022-10-26T13:11:19.693Z,97023.13
2022-10-26T13:13:55.363Z,97021.63
2022-10-26T13:16:27.917Z,97022.78
2022-10-26T13:18:57.430Z,97020.78
2022-10-26T13:21:27.094Z,97027.09
2022-10-26T13:24:05.598Z,97016.28
2022-10-26T13:26:54.292Z,97032.81
2022-10-26T13:29:31.115Z,97025.28
2022-10-26T13:32:00.432Z,97022.34
2022-10-26T13:34:32.037Z,97028.50
2022-10-26T13:37:08.039Z,97033.03
2022-10-26T13:39:42.459Z,97031.56
2022-10-26T13:42:16.855Z,97027.53
2022-10-26T13:44:53.667Z,97031.88
2022-10-26T13:47:28.835Z,97029.06
2022-10-26T13:50:03.240Z,97029.88
2022-10-26T13:52:36.843Z,97037.75
2022-10-26T13:55:11.067Z,97034.06
2022-10-26T13:57:43.265Z,97039.56
2022-10-26T14:00:18.572Z,97044.78
2022-10-26T14:02:46.647Z,97043.09
2022-10-26T14:05:18.272Z,97045.59
2022-10-26T14:07:52.583Z,97046.63
2022-10-26T14:10:29.142Z,97047.59
2022-10-26T14:12:58.261Z,97051.81
2022-10-26T14:15:30.252Z,97058.28
2022-10-26T14:18:01.067Z,97063.66
2022-10-26T14:20:30.988Z,97064.50
2022-10-26T14:22:59.083Z,97060.81
2022-10-26T14:25:42.453Z,97063.66
2022-10-26T14:28:27.522Z,97075.22
2022-10-26T14:30:57.195Z,97072.34
2022-10-26T14:33:29.510Z,97068.00
2022-10-26T14:35:58.128Z,97076.19
2022-10-26T14:38:30.137Z,97077.69
2022-10-26T14:40:59.816Z,97080.69
2022-10-26T14:43:28.716Z,97082.69
2022-10-26T14:45:57.314Z,97077.34
2022-10-26T14:48:30.298Z,97086.88
2022-10-26T14:51:02.963Z,97091.41
2022-10-26T14:53:36.569Z,97089.75
2022-10-26T14:56:17.905Z,97088.22
2022-10-26T14:58:46.361Z,97091.72
2022-10-26T15:01:26.864Z,97090.19
2022-10-26T15:03:58.214Z,97095.38
2022-10-26T15:06:32.437Z,97095.00
2022-10-26T15:09:02.100Z,97095.00
2022-10-26T15:11:33.599Z,97091.50
2022-10-26T15:14:02.384Z,97096.31
2022-10-26T15:16:40.963Z,97101.16
2022-10-26T15:19:11.404Z,97103.28
2022-10-26T15:21:47.019Z,97107.94
2022-10-26T15:24:33.147Z,97111.63
2022-10-26T15:27:13.148Z,97109.53
2022-10-26T15:29:43.747Z,97117.56
2022-10-26T15:32:31.210Z,97114.38
2022-10-26T15:35:32.704Z,97109.50
2022-10-26T15:38:01.642Z,97119.81
2022-10-26T15:40:32.212Z,97119.72
2022-10-26T15:43:02.158Z,97123.47
2022-10-26T15:45:35.134Z,97119.72
2022-10-26T15:48:19.412Z,97119.78
2022-10-26T15:50:47.525Z,97115.56
2022-10-26T15:53:20.533Z,97121.97
2022-10-26T15:55:48.923Z,97126.91
2022-10-26T15:58:18.526Z,97127.81
2022-10-26T16:00:46.584Z,97134.88
2022-10-26T16:03:23.155Z,97138.28
2022-10-26T16:05:57.684Z,97145.66
2022-10-26T16:08:27.766Z,97153.94
2022-10-26T16:10:56.018Z,97153.25
2022-10-26T16:13:26.691Z,97149.38
2022-10-26T16:15:54.674Z,97154.44
2022-10-26T16:18:22.667Z,97154.34
2022-10-26T16:20:50.563Z,97159.69
2022-10-26T16:23:18.715Z,97160.38
2022-10-26T16:25:47.816Z,97162.66
2022-10-26T16:28:17.645Z,97170.63
2022-10-26T16:30:46.935Z,97173.72
2022-10-26T16:33:15.037Z,97174.16
2022-10-26T16:35:43.076Z,97171.38
2022-10-26T16:38:11.162Z,97174.44
2022-10-26T16:40:42.598Z,97177.94
2022-10-26T16:43:10.849Z,97179.75
2022-10-26T16:45:40.940Z,97183.53
2022-10-26T16:48:15.054Z,97185.78
2022-10-26T16:50:42.955Z,97194.31
2022-10-26T16:53:10.970Z,97203.00
2022-10-26T16:55:39.256Z,97190.38
2022-10-26T16:58:07.211Z,97203.41
2022-10-26T17:00:36.579Z,97206.66
2022-10-26T17:03:05.272Z,97216.47
2022-10-26T17:05:34.515Z,97216.59
2022-10-26T17:08:02.450Z,97220.50
2022-10-26T17:10:30.589Z,97221.75
2022-10-26T17:12:58.476Z,97224.56
2022-10-26T17:15:29.143Z,97231.72
2022-10-26T17:17:57.504Z,97233.47
2022-10-26T17:20:26.076Z,97229.69
2022-10-26T17:22:58.219Z,97234.13
2022-10-26T17:25:26.413Z,97235.81
2022-10-26T17:27:54.330Z,97242.41
2022-10-26T17:30:23.041Z,97240.69
2022-10-26T17:32:51.966Z,97248.47
2022-10-26T17:35:20.160Z,97252.94
2022-10-26T17:37:48.356Z,97254.06
2022-10-26T17:40:18.068Z,97260.75
2022-10-26T17:42:46.164Z,97261.03
2022-10-26T17:45:14.099Z,97261.28
2022-10-26T17:47:42.049Z,97269.66
2022-10-26T17:50:10.475Z,97260.25
2022-10-26T17:52:38.429Z,97263.03
2022-10-26T17:55:07.131Z,97265.25
2022-10-26T17:57:36.412Z,97267.59
2022-10-26T18:00:06.411Z,97270.38
2022-10-26T18:02:40.476Z,97274.84
2022-10-26T18:05:09.837Z,97279.59
2022-10-26T18:07:39.200Z,97284.31
2022-10-26T18:10:26.230Z,97290.13
2022-10-26T18:12:59.573Z,97294.16
2022-10-26T18:15:27.925Z,97298.25
2022-10-26T18:17:59.835Z,97301.75
2022-10-26T18:20:28.758Z,97306.03
2022-10-26T18:22:57.095Z,97302.34
2022-10-26T18:25:25.212Z,97302.81
2022-10-26T18:27:53.243Z,97299.72
2022-10-26T18:30:22.896Z,97305.16
2022-10-26T18:32:52.048Z,97306.25
2022-10-26T18:35:20.494Z,97309.38
2022-10-26T18:37:48.617Z,97304.34
2022-10-26T18:40:17.157Z,97306.41
2022-10-26T18:42:45.050Z,97306.16
2022-10-26T18:45:13.134Z,97311.22
2022-10-26T18:47:42.618Z,97312.47
2022-10-26T18:50:11.139Z,97321.53
2022-10-26T18:52:41.204Z,97318.16
2022-10-26T18:55:10.701Z,97313.34
2022-10-26T18:57:38.927Z,97318.63
2022-10-26T19:00:09.378Z,97319.81
2022-10-26T19:02:37.486Z,97323.44
2022-10-26T19:05:08.935Z,97328.75
2022-10-26T19:07:39.857Z,97327.06
2022-10-26T19:10:10.997Z,97327.19
2022-10-26T19:12:39.209Z,97326.84
2022-10-26T19:15:08.574Z,97324.28
2022-10-26T19:17:36.680Z,97326.13
2022-10-26T19:20:07.336Z,97334.34
2022-10-26T19:22:35.377Z,97337.59
2022-10-26T19:25:03.850Z,97337.84
2022-10-26T19:27:31.825Z,97351.47
2022-10-26T19:30:00.117Z,97342.44
2022-10-26T19:32:28.769Z,97343.28
2022-10-26T19:34:56.725Z,97341.72
2022-10-26T19:37:28.226Z,97344.84
2022-10-26T19:39:56.701Z,97346.03
2022-10-26T19:42:24.875Z,97348.19
2022-10-26T19:44:52.950Z,97352.56
2022-10-26T19:47:20.891Z,97356.16
2022-10-26T19:49:49.292Z,97357.59
2022-10-26T19:54:51.578Z,97353.63
2022-10-26T19:57:19.518Z,97354.31
2022-10-26T19:59:47.454Z,97357.91
2022-10-26T20:02:15.655Z,97354.44
2022-10-26T20:04:45.295Z,97351.88
2022-10-26T20:07:13.345Z,97357.19
2022-10-26T20:09:41.287Z,97362.38
2022-10-26T20:12:12.687Z,97359.16
2022-10-26T20:14:40.789Z,97359.00
2022-10-26T20:17:08.705Z,97368.03
2022-10-26T20:19:36.649Z,97368.53
2022-10-26T20:22:04.528Z,97371.63
2022-10-26T20:24:32.486Z,97375.38
2022-10-26T20:27:00.380Z,97378.13
2022-10-26T20:29:29.568Z,97376.78
2022-10-26T20:31:59.243Z,97381.34
2022-10-26T20:37:01.549Z,97385.59
2022-10-26T20:39:30.492Z,97390.16
2022-10-26T20:41:59.618Z,97383.91
2022-10-26T20:44:34.425Z,97385.19
2022-10-26T20:47:02.694Z,97394.31
2022-10-26T20:49:31.203Z,97392.75
2022-10-26T20:52:21.806Z,97393.22
2022-10-26T20:54:56.467Z,97393.78
2022-10-26T20:57:32.206Z,97397.41
2022-10-26T21:00:07.461Z,97392.94
2022-10-26T21:02:35.661Z,97403.78
2022-10-26T21:05:03.580Z,97400.34
2022-10-26T21:07:31.603Z,97408.63
2022-10-26T21:09:59.514Z,97411.38
2022-10-26T21:12:27.489Z,97411.28
2022-10-26T21:14:55.881Z,97413.88
2022-10-26T21:17:25.495Z,97412.09
2022-10-26T21:19:53.402Z,97409.03
2022-10-26T21:22:21.464Z,97405.50
2022-10-26T21:24:49.389Z,97412.28
2022-10-26T21:27:17.639Z,97402.66
2022-10-26T21:29:45.635Z,97411.03
2022-10-26T21:32:13.673Z,97411.03
2022-10-26T21:34:42.885Z,97402.34
2022-10-26T21:37:10.872Z,97410.53
2022-10-26T21:39:38.720Z,97413.19
2022-10-26T21:42:06.747Z,97415.94
2022-10-26T21:44:42.066Z,97417.84
2022-10-26T21:47:10.776Z,97417.97
2022-10-26T21:49:38.844Z,97423.38
2022-10-26T21:52:08.658Z,97427.91
2022-10-26T21:54:36.573Z,97431.88
2022-10-26T21:57:04.568Z,97432.69
2022-10-26T21:59:32.483Z,97432.78
2022-10-26T22:02:00.888Z,97423.41
2022-10-26T22:04:28.930Z,97431.44
2022-10-26T22:06:56.831Z,97418.84
2022-10-26T22:09:26.263Z,97423.41
2022-10-26T22:11:54.272Z,97427.84
2022-10-26T22:14:22.517Z,97430.69
2022-10-26T22:16:50.710Z,97429.63
2022-10-26T22:19:18.974Z,97425.91
2022-10-26T22:21:47.013Z,97425.41
2022-10-26T22:24:14.992Z,97419.28
2022-10-26T22:26:44.285Z,97428.50
2022-10-26T22:29:12.251Z,97426.19
2022-10-26T22:31:41.530Z,97426.50
2022-10-26T22:34:14.388Z,97422.66
2022-10-26T22:36:42.755Z,97423.63
2022-10-26T22:39:10.794Z,97427.13
2022-10-26T22:41:38.678Z,97417.19
2022-10-26T22:44:08.197Z,97425.34
2022-10-26T22:46:36.130Z,97418.56
2022-10-26T22:49:04.582Z,97420.38
2022-10-26T22:51:34.162Z,97432.44
2022-10-26T22:54:03.586Z,97424.50
2022-10-26T22:56:33.087Z,97422.19
2022-10-26T22:59:01.396Z,97422.38
2022-10-26T23:01:32.873Z,97420.69
2022-10-26T23:04:01.498Z,97424.41
2022-10-26T23:06:31.558Z,97429.91
2022-10-26T23:08:59.996Z,97430.00
2022-10-26T23:11:29.385Z,97422.38
2022-10-26T23:13:59.501Z,97423.44
2022-10-26T23:16:28.426Z,97413.81
2022-10-26T23:18:58.723Z,97421.34
2022-10-26T23:24:00.838Z,97417.09
2022-10-26T23:26:28.830Z,97426.19
2022-10-26T23:28:57.014Z,97410.53
2022-10-26T23:31:26.770Z,97420.91
2022-10-26T23:33:56.541Z,97422.81
2022-10-26T23:36:26.404Z,97423.34
2022-10-26T23:38:54.369Z,97413.59
2022-10-26T23:41:23.446Z,97417.91
2022-10-26T23:43:51.388Z,97416.25
2022-10-26T23:46:19.424Z,97419.63
2022-10-26T23:48:47.548Z,97410.94
2022-10-26T23:51:15.469Z,97407.34
2022-10-26T23:53:44.819Z,97411.91
2022-10-26T23:56:12.770Z,97414.88
2022-10-26T23:58:40.741Z,97417.81
